createdAt,value
2019-05-18T00:00:43.492Z,99.90
2019-05-18T00:03:11.933Z,99.90
2019-05-18T00:05:40.406Z,99.90
2019-05-18T00:08:08.846Z,99.90
2019-05-18T00:10:37.304Z,99.90
2019-05-18T00:13:05.748Z,99.90
2019-05-18T00:15:34.201Z,99.90
2019-05-18T00:18:02.670Z,99.90
2019-05-18T00:20:31.181Z,99.90
2019-05-18T00:22:59.625Z,99.90
2019-05-18T00:25:28.082Z,99.90
2019-05-18T00:27:56.523Z,99.90
2019-05-18T00:30:24.974Z,99.90
2019-05-18T00:32:53.404Z,99.90
2019-05-18T00:35:21.867Z,99.90
2019-05-18T00:37:50.301Z,99.90
2019-05-18T00:40:18.753Z,99.90
2019-05-18T00:42:47.201Z,99.90
2019-05-18T00:45:15.803Z,99.90
2019-05-18T00:47:44.237Z,99.90
2019-05-18T00:50:12.908Z,99.90
2019-05-18T00:52:41.366Z,99.90
2019-05-18T00:55:09.959Z,99.90
2019-05-18T00:57:38.484Z,99.90
2019-05-18T01:00:08.200Z,99.90
2019-05-18T01:02:36.665Z,99.90
2019-05-18T01:05:06.235Z,99.90
2019-05-18T01:07:34.714Z,99.90
2019-05-18T01:10:03.413Z,99.90
2019-05-18T01:12:31.895Z,99.90
2019-05-18T01:15:00.335Z,99.90
2019-05-18T01:17:28.796Z,99.90
2019-05-18T01:19:57.319Z,99.90
2019-05-18T01:22:25.779Z,99.90
2019-05-18T01:24:54.226Z,99.90
2019-05-18T01:27:22.679Z,99.90
2019-05-18T01:29:51.120Z,99.90
2019-05-18T01:32:19.737Z,99.90
2019-05-18T01:34:48.245Z,99.90
2019-05-18T01:37:16.707Z,99.90
2019-05-18T01:39:45.129Z,99.90
2019-05-18T01:42:13.582Z,99.90
2019-05-18T01:44:42.029Z,99.90
2019-05-18T01:47:10.505Z,99.90
2019-05-18T01:49:39.029Z,99.90
2019-05-18T01:52:07.583Z,99.90
2019-05-18T01:54:36.013Z,99.90
2019-05-18T01:57:04.464Z,99.90
2019-05-18T01:59:32.899Z,99.90
2019-05-18T02:02:01.354Z,99.90
2019-05-18T02:04:29.804Z,99.90
2019-05-18T02:06:58.272Z,99.90
2019-05-18T02:09:26.704Z,99.90
2019-05-18T02:11:55.167Z,99.90
2019-05-18T02:14:23.600Z,99.90
2019-05-18T02:16:52.068Z,99.90
2019-05-18T02:19:20.507Z,99.90
2019-05-18T02:21:48.975Z,99.90
2019-05-18T02:24:17.423Z,99.90
2019-05-18T02:26:45.883Z,99.90
2019-05-18T02:29:14.320Z,99.90
2019-05-18T02:31:42.766Z,99.90
2019-05-18T02:34:11.205Z,99.90
2019-05-18T02:36:39.664Z,99.90
2019-05-18T02:39:08.865Z,99.90
2019-05-18T02:41:37.365Z,99.90
2019-05-18T02:44:06.047Z,99.90
2019-05-18T02:46:34.567Z,99.90
2019-05-18T02:49:03.022Z,99.90
2019-05-18T02:51:31.461Z,99.90
2019-05-18T02:53:59.914Z,99.90
2019-05-18T02:56:28.356Z,99.90
2019-05-18T02:58:56.890Z,99.90
2019-05-18T03:01:25.329Z,99.90
2019-05-18T03:03:53.778Z,99.90
2019-05-18T03:06:22.315Z,99.90
2019-05-18T03:08:50.820Z,99.90
2019-05-18T03:11:19.258Z,99.90
2019-05-18T03:13:47.718Z,99.90
2019-05-18T03:16:16.163Z,99.90
2019-05-18T03:18:44.619Z,99.90
2019-05-18T03:21:13.058Z,99.90
2019-05-18T03:23:41.591Z,99.90
2019-05-18T03:26:10.038Z,99.90
2019-05-18T03:28:38.521Z,99.90
2019-05-18T03:31:06.950Z,99.90
2019-05-18T03:33:35.411Z,99.90
2019-05-18T03:36:03.854Z,99.90
2019-05-18T03:38:32.322Z,99.90
2019-05-18T03:41:00.755Z,99.90
2019-05-18T03:43:29.223Z,99.90
2019-05-18T03:45:57.651Z,99.90
2019-05-18T03:48:26.110Z,99.90
2019-05-18T03:50:54.558Z,99.90
2019-05-18T03:53:23.014Z,99.90
2019-05-18T03:55:51.449Z,99.90
2019-05-18T03:58:19.907Z,99.90
2019-05-18T04:00:48.348Z,99.90
2019-05-18T04:03:16.793Z,99.90
2019-05-18T04:05:45.239Z,99.90
2019-05-18T04:08:13.718Z,99.90
2019-05-18T04:10:42.208Z,99.90
2019-05-18T04:13:10.659Z,99.90
2019-05-18T04:15:39.098Z,99.90
2019-05-18T04:18:07.565Z,99.90
2019-05-18T04:20:36.004Z,99.90
2019-05-18T04:23:04.612Z,99.90
2019-05-18T04:25:33.056Z,99.90
2019-05-18T04:28:01.539Z,99.90
2019-05-18T04:30:30.089Z,99.90
2019-05-18T04:32:58.517Z,99.90
2019-05-18T04:35:26.987Z,99.90
2019-05-18T04:37:55.435Z,99.90
2019-05-18T04:40:23.902Z,99.90
2019-05-18T04:42:52.347Z,99.90
2019-05-18T04:45:20.795Z,99.90
2019-05-18T04:47:49.248Z,99.90
2019-05-18T04:50:17.915Z,99.90
2019-05-18T04:52:46.421Z,99.90
2019-05-18T04:55:14.901Z,99.90
2019-05-18T04:57:43.396Z,99.90
2019-05-18T05:00:11.846Z,99.90
2019-05-18T05:02:40.288Z,99.90
2019-05-18T05:05:08.806Z,99.90
2019-05-18T05:07:37.249Z,99.90
2019-05-18T05:10:07.164Z,99.90
2019-05-18T05:12:35.709Z,99.90
2019-05-18T05:15:04.607Z,99.90
2019-05-18T05:17:33.051Z,99.90
2019-05-18T05:20:01.516Z,99.90
2019-05-18T05:22:29.982Z,99.90
2019-05-18T05:24:58.449Z,99.90
2019-05-18T05:27:26.870Z,99.90
2019-05-18T05:29:55.416Z,99.90
2019-05-18T05:32:23.873Z,99.90
2019-05-18T05:34:52.353Z,99.90
2019-05-18T05:37:20.781Z,99.90
2019-05-18T05:39:49.247Z,99.90
2019-05-18T05:42:17.846Z,99.90
2019-05-18T05:44:46.328Z,99.90
2019-05-18T05:47:14.819Z,99.90
2019-05-18T05:49:43.278Z,99.90
2019-05-18T05:52:11.733Z,99.90
2019-05-18T05:54:40.197Z,99.90
2019-05-18T05:57:08.649Z,99.90
2019-05-18T05:59:37.128Z,99.90
2019-05-18T06:02:05.567Z,99.90
2019-05-18T06:04:34.023Z,99.90
2019-05-18T06:07:02.455Z,99.90
2019-05-18T06:09:30.917Z,99.90
2019-05-18T06:11:59.355Z,99.90
2019-05-18T06:14:27.813Z,99.90
2019-05-18T06:16:56.259Z,99.90
2019-05-18T06:19:24.694Z,99.90
2019-05-18T06:21:53.214Z,99.90
2019-05-18T06:24:21.667Z,99.90
2019-05-18T06:26:50.131Z,99.90
2019-05-18T06:29:18.561Z,99.90
2019-05-18T06:31:47.012Z,99.90
2019-05-18T06:34:15.456Z,99.90
2019-05-18T06:36:43.913Z,99.90
2019-05-18T06:39:12.348Z,99.90
2019-05-18T06:41:40.811Z,99.90
2019-05-18T06:44:09.248Z,99.90
2019-05-18T06:46:37.713Z,99.90
2019-05-18T06:49:06.140Z,99.90
2019-05-18T06:51:34.618Z,99.90
2019-05-18T06:54:03.110Z,99.90
2019-05-18T06:56:33.647Z,99.90
2019-05-18T06:59:02.467Z,99.90
2019-05-18T07:01:31.025Z,99.90
2019-05-18T07:03:59.517Z,99.90
2019-05-18T07:06:28.032Z,99.90
2019-05-18T07:08:56.529Z,99.90
2019-05-18T07:11:25.057Z,99.90
2019-05-18T07:13:53.493Z,99.90
2019-05-18T07:16:21.972Z,99.90
2019-05-18T07:18:50.398Z,99.90
2019-05-18T07:21:22.267Z,99.90
2019-05-18T07:23:49.034Z,99.90
2019-05-18T07:26:17.498Z,99.90
2019-05-18T07:28:45.944Z,99.90
2019-05-18T07:31:14.382Z,99.90
2019-05-18T07:33:42.831Z,99.90
2019-05-18T07:36:11.291Z,99.90
2019-05-18T07:38:39.727Z,99.90
2019-05-18T07:41:08.173Z,99.90
2019-05-18T07:43:36.636Z,99.90
2019-05-18T07:46:05.077Z,99.90
2019-05-18T07:48:33.517Z,99.90
2019-05-18T07:51:01.985Z,99.90
2019-05-18T07:53:30.477Z,99.90
2019-05-18T07:55:58.930Z,99.90
2019-05-18T07:58:27.370Z,99.90
2019-05-18T08:00:55.825Z,99.90
2019-05-18T08:03:24.332Z,99.90
2019-05-18T08:05:52.789Z,99.90
2019-05-18T08:08:21.228Z,99.90
2019-05-18T08:10:49.698Z,99.90
2019-05-18T08:13:18.169Z,99.90
2019-05-18T08:15:46.658Z,99.90
2019-05-18T08:18:15.102Z,99.90
2019-05-18T08:20:43.538Z,99.90
2019-05-18T08:23:11.980Z,99.90
2019-05-18T08:25:40.425Z,99.90
2019-05-18T08:28:08.873Z,99.90
2019-05-18T08:30:37.314Z,99.90
2019-05-18T08:33:05.756Z,99.90
2019-05-18T08:35:34.185Z,99.90
2019-05-18T08:38:02.686Z,99.90
2019-05-18T08:40:31.150Z,99.90
2019-05-18T08:42:59.605Z,99.90
2019-05-18T08:45:28.031Z,99.90
2019-05-18T08:47:56.496Z,99.90
2019-05-18T08:50:24.997Z,99.90
2019-05-18T08:52:53.458Z,99.90
2019-05-18T08:55:21.885Z,99.90
2019-05-18T08:57:50.337Z,99.90
2019-05-18T09:00:20.711Z,99.90
2019-05-18T09:02:49.157Z,99.90
2019-05-18T09:05:17.649Z,99.90
2019-05-18T09:07:46.105Z,99.90
2019-05-18T09:10:14.924Z,99.90
2019-05-18T09:12:43.419Z,99.90
2019-05-18T09:15:13.299Z,99.90
2019-05-18T09:17:41.749Z,99.90
2019-05-18T09:20:10.730Z,99.90
2019-05-18T09:22:39.166Z,99.90
2019-05-18T09:25:08.094Z,99.90
2019-05-18T09:27:36.544Z,99.90
2019-05-18T09:30:07.078Z,99.90
2019-05-18T09:32:35.527Z,99.90
2019-05-18T09:35:07.870Z,98.30
2019-05-18T09:37:36.318Z,97.80
2019-05-18T09:40:08.412Z,97.60
2019-05-18T09:42:36.864Z,97.50
2019-05-18T09:45:07.008Z,97.60
2019-05-18T09:47:35.630Z,97.50
2019-05-18T09:50:05.025Z,97.00
2019-05-18T09:52:45.029Z,96.50
2019-05-18T09:55:05.427Z,96.80
2019-05-18T09:57:33.926Z,96.90
2019-05-18T10:00:02.399Z,96.60
2019-05-18T10:02:30.864Z,96.00
2019-05-18T10:04:59.291Z,97.30
2019-05-18T10:07:27.747Z,96.90
2019-05-18T10:09:56.177Z,97.10
2019-05-18T10:12:24.935Z,96.60
2019-05-18T10:14:53.471Z,96.50
2019-05-18T10:17:21.901Z,96.60
2019-05-18T10:19:50.357Z,96.90
2019-05-18T10:22:18.792Z,96.40
2019-05-18T10:24:47.996Z,95.90
2019-05-18T10:27:16.431Z,94.90
2019-05-18T10:29:46.719Z,94.90
2019-05-18T10:32:15.046Z,95.50
2019-05-18T10:34:43.502Z,94.70
2019-05-18T10:37:11.937Z,94.40
2019-05-18T10:39:40.384Z,95.10
2019-05-18T10:42:08.893Z,95.10
2019-05-18T10:44:37.356Z,94.00
2019-05-18T10:47:05.831Z,94.00
2019-05-18T10:49:34.281Z,94.40
2019-05-18T10:52:02.790Z,94.90
2019-05-18T10:54:31.323Z,95.00
2019-05-18T10:56:59.805Z,94.60
2019-05-18T10:59:28.254Z,95.30
2019-05-18T11:01:56.685Z,96.10
2019-05-18T11:04:25.135Z,96.20
2019-05-18T11:06:53.584Z,96.60
2019-05-18T11:09:22.091Z,97.40
2019-05-18T11:11:50.533Z,96.60
2019-05-18T11:14:19.107Z,96.00
2019-05-18T11:16:47.545Z,94.60
2019-05-18T11:19:16.001Z,94.00
2019-05-18T11:21:44.437Z,94.20
2019-05-18T11:24:12.888Z,93.20
2019-05-18T11:26:41.318Z,93.50
2019-05-18T11:29:09.783Z,92.70
2019-05-18T11:31:38.212Z,92.20
2019-05-18T11:34:06.749Z,93.00
2019-05-18T11:36:35.177Z,91.70
2019-05-18T11:39:05.110Z,90.60
2019-05-18T11:41:33.541Z,90.40
2019-05-18T11:44:02.066Z,91.20
2019-05-18T11:46:30.497Z,91.00
2019-05-18T11:48:58.938Z,91.10
2019-05-18T11:51:27.393Z,92.00
2019-05-18T11:53:58.445Z,92.30
2019-05-18T11:56:26.002Z,92.50
2019-05-18T11:58:54.454Z,83.60
2019-05-18T12:01:22.899Z,82.50
2019-05-18T12:03:51.346Z,82.50
2019-05-18T12:06:19.856Z,82.70
2019-05-18T12:08:48.323Z,80.80
2019-05-18T12:11:16.777Z,71.90
2019-05-18T12:13:45.226Z,63.90
2019-05-18T12:16:16.918Z,65.40
2019-05-18T12:18:43.834Z,62.30
2019-05-18T12:21:12.355Z,63.40
2019-05-18T12:23:40.793Z,61.30
2019-05-18T12:26:09.243Z,62.00
2019-05-18T12:28:37.671Z,60.50
2019-05-18T12:31:06.126Z,61.60
2019-05-18T12:33:34.617Z,60.90
2019-05-18T12:36:03.267Z,61.60
2019-05-18T12:38:31.693Z,59.70
2019-05-18T12:41:00.146Z,57.90
2019-05-18T12:43:28.572Z,57.10
2019-05-18T12:45:57.047Z,56.10
2019-05-18T12:48:25.533Z,53.50
2019-05-18T12:50:53.985Z,52.10
2019-05-18T12:53:22.423Z,53.20
2019-05-18T12:55:50.891Z,54.20
2019-05-18T12:58:19.357Z,54.50
2019-05-18T13:00:47.823Z,54.50
2019-05-18T13:03:16.323Z,55.00
2019-05-18T13:05:44.770Z,54.50
2019-05-18T13:08:13.208Z,55.10
2019-05-18T13:10:41.662Z,55.90
2019-05-18T13:13:10.148Z,56.70
2019-05-18T13:15:38.626Z,56.30
2019-05-18T13:18:07.122Z,55.40
2019-05-18T13:20:35.569Z,55.10
2019-05-18T13:23:03.994Z,53.10
2019-05-18T13:25:32.441Z,53.80
2019-05-18T13:28:00.868Z,52.50
2019-05-18T13:30:29.457Z,51.80
2019-05-18T13:32:57.904Z,49.50
2019-05-18T13:35:26.346Z,49.70
2019-05-18T13:37:54.788Z,50.70
2019-05-18T13:40:23.458Z,50.90
2019-05-18T13:42:51.919Z,50.10
2019-05-18T13:45:21.381Z,49.90
2019-05-18T13:47:50.383Z,50.10
2019-05-18T13:50:18.957Z,48.80
2019-05-18T13:52:47.402Z,48.80
2019-05-18T13:55:15.969Z,49.00
2019-05-18T13:57:44.423Z,47.10
2019-05-18T14:00:13.211Z,44.90
2019-05-18T14:02:41.722Z,43.40
2019-05-18T14:05:10.394Z,43.80
2019-05-18T14:07:38.853Z,43.30
2019-05-18T14:10:08.243Z,43.10
2019-05-18T14:12:36.770Z,42.00
2019-05-18T14:15:06.917Z,41.50
2019-05-18T14:17:35.373Z,41.30
2019-05-18T14:20:04.643Z,40.90
2019-05-18T14:22:33.085Z,41.60
2019-05-18T14:25:10.532Z,41.40
2019-05-18T14:27:32.061Z,41.40
2019-05-18T14:30:00.498Z,43.80
2019-05-18T14:32:28.962Z,44.80
2019-05-18T14:34:57.387Z,45.00
2019-05-18T14:37:25.833Z,44.80
2019-05-18T14:39:54.261Z,43.80
2019-05-18T14:42:22.720Z,42.50
2019-05-18T14:44:51.153Z,40.90
2019-05-18T14:47:19.603Z,40.80
2019-05-18T14:49:48.037Z,40.90
2019-05-18T14:52:16.490Z,41.40
2019-05-18T14:54:44.924Z,41.60
2019-05-18T14:57:13.381Z,41.50
2019-05-18T14:59:41.803Z,41.20
2019-05-18T15:02:10.259Z,41.10
2019-05-18T15:04:38.733Z,42.00
2019-05-18T15:07:07.216Z,43.30
2019-05-18T15:09:35.654Z,43.90
2019-05-18T15:12:04.173Z,44.00
2019-05-18T15:14:32.596Z,42.00
2019-05-18T15:17:01.188Z,40.70
2019-05-18T15:19:29.706Z,40.90
2019-05-18T15:21:58.129Z,40.00
2019-05-18T15:24:26.570Z,40.60
2019-05-18T15:26:55.033Z,39.50
2019-05-18T15:29:23.514Z,39.20
2019-05-18T15:31:51.995Z,39.40
2019-05-18T15:34:20.461Z,39.00
2019-05-18T15:36:48.895Z,38.80
2019-05-18T15:39:17.356Z,39.20
2019-05-18T15:41:45.785Z,39.40
2019-05-18T15:44:14.241Z,39.90
2019-05-18T15:46:42.675Z,39.90
2019-05-18T15:49:11.149Z,39.40
2019-05-18T15:51:39.642Z,39.40
2019-05-18T15:54:08.095Z,39.10
2019-05-18T15:56:36.530Z,39.40
2019-05-18T15:59:05.044Z,39.70
2019-05-18T16:01:33.605Z,40.20
2019-05-18T16:04:02.103Z,40.00
2019-05-18T16:06:30.562Z,40.20
2019-05-18T16:08:59.069Z,40.40
2019-05-18T16:11:27.498Z,41.10
2019-05-18T16:13:55.971Z,41.50
2019-05-18T16:16:24.476Z,41.20
2019-05-18T16:18:52.931Z,41.30
2019-05-18T16:21:21.368Z,41.30
2019-05-18T16:23:49.821Z,40.60
2019-05-18T16:26:21.528Z,40.60
2019-05-18T16:28:48.413Z,40.50
2019-05-18T16:31:16.870Z,41.60
2019-05-18T16:33:45.310Z,40.90
2019-05-18T16:36:13.735Z,40.90
2019-05-18T16:38:42.207Z,40.70
2019-05-18T16:41:10.634Z,41.30
2019-05-18T16:43:39.089Z,40.90
2019-05-18T16:46:07.515Z,40.70
2019-05-18T16:48:39.300Z,41.20
2019-05-18T16:51:06.119Z,41.30
2019-05-18T16:53:34.574Z,41.60
2019-05-18T16:56:03.001Z,42.00
2019-05-18T16:58:31.449Z,41.40
2019-05-18T17:00:59.919Z,41.30
2019-05-18T17:03:28.367Z,41.40
2019-05-18T17:05:56.797Z,41.60
2019-05-18T17:08:25.243Z,41.60
2019-05-18T17:10:53.698Z,41.90
2019-05-18T17:13:22.134Z,42.20
2019-05-18T17:15:50.587Z,41.50
2019-05-18T17:18:19.014Z,41.90
2019-05-18T17:20:47.465Z,41.70
2019-05-18T17:23:15.895Z,41.80
2019-05-18T17:25:44.355Z,42.10
2019-05-18T17:28:12.865Z,41.90
2019-05-18T17:30:42.797Z,42.00
2019-05-18T17:33:11.440Z,42.10
2019-05-18T17:35:39.886Z,42.50
2019-05-18T17:38:08.336Z,43.10
2019-05-18T17:40:36.790Z,43.60
2019-05-18T17:43:05.234Z,43.70
2019-05-18T17:45:33.713Z,43.80
2019-05-18T17:48:02.203Z,43.50
2019-05-18T17:50:30.665Z,43.90
2019-05-18T17:52:59.095Z,44.30
2019-05-18T17:55:27.538Z,44.40
2019-05-18T17:57:55.967Z,44.80
2019-05-18T18:00:24.519Z,45.30
2019-05-18T18:02:52.993Z,45.50
2019-05-18T18:05:21.461Z,45.90
2019-05-18T18:07:49.898Z,46.30
2019-05-18T18:10:18.508Z,46.60
2019-05-18T18:12:47.017Z,47.00
2019-05-18T18:15:15.807Z,47.20
2019-05-18T18:17:44.231Z,47.30
2019-05-18T18:20:13.226Z,47.60
2019-05-18T18:22:41.666Z,48.10
2019-05-18T18:25:10.367Z,48.00
2019-05-18T18:27:38.794Z,48.40
2019-05-18T18:30:11.402Z,48.80
2019-05-18T18:32:39.825Z,49.40
2019-05-18T18:35:08.437Z,50.00
2019-05-18T18:37:36.879Z,50.40
2019-05-18T18:40:08.271Z,50.70
2019-05-18T18:42:36.728Z,51.40
2019-05-18T18:45:09.223Z,51.90
2019-05-18T18:47:37.674Z,52.50
2019-05-18T18:50:07.171Z,53.10
2019-05-18T18:52:35.615Z,53.90
2019-05-18T18:55:04.829Z,54.90
2019-05-18T18:57:41.156Z,55.90
2019-05-18T19:00:04.257Z,57.00
2019-05-18T19:02:32.706Z,59.80
2019-05-18T19:05:01.246Z,63.60
2019-05-18T19:07:29.739Z,68.70
2019-05-18T19:09:58.158Z,72.70
2019-05-18T19:12:26.606Z,78.60
2019-05-18T19:14:55.045Z,83.10
2019-05-18T19:17:23.580Z,86.80
2019-05-18T19:19:52.011Z,90.60
2019-05-18T19:22:20.461Z,92.70
2019-05-18T19:24:48.896Z,94.00
2019-05-18T19:27:17.345Z,95.70
2019-05-18T19:29:45.786Z,95.60
2019-05-18T19:32:14.221Z,95.70
2019-05-18T19:34:42.653Z,96.30
2019-05-18T19:37:11.114Z,96.60
2019-05-18T19:39:39.610Z,97.20
2019-05-18T19:42:08.052Z,98.20
2019-05-18T19:44:36.478Z,98.60
2019-05-18T19:47:04.930Z,99.30
2019-05-18T19:49:33.386Z,99.60
2019-05-18T19:52:01.825Z,99.90
2019-05-18T19:54:30.266Z,99.90
2019-05-18T19:56:58.810Z,99.90
2019-05-18T19:59:27.335Z,99.90
2019-05-18T20:01:55.801Z,99.90
2019-05-18T20:04:24.231Z,99.90
2019-05-18T20:06:52.699Z,99.90
2019-05-18T20:09:21.144Z,99.90
2019-05-18T20:11:49.667Z,99.90
2019-05-18T20:14:18.099Z,99.90
2019-05-18T20:16:46.596Z,99.90
2019-05-18T20:19:15.085Z,99.90
2019-05-18T20:21:43.528Z,99.90
2019-05-18T20:24:11.964Z,99.90
2019-05-18T20:26:40.410Z,99.90
2019-05-18T20:29:08.830Z,99.90
2019-05-18T20:31:37.281Z,99.90
2019-05-18T20:34:05.723Z,99.90
2019-05-18T20:36:34.184Z,99.90
2019-05-18T20:39:02.627Z,99.90
2019-05-18T20:41:31.076Z,99.90
2019-05-18T20:43:59.514Z,99.90
2019-05-18T20:46:27.968Z,99.90
2019-05-18T20:48:56.400Z,99.90
2019-05-18T20:51:24.850Z,99.90
2019-05-18T20:53:53.311Z,99.90
2019-05-18T20:56:21.810Z,99.90
2019-05-18T20:58:50.263Z,99.90
2019-05-18T21:01:18.759Z,99.90
2019-05-18T21:03:47.272Z,99.90
2019-05-18T21:06:15.719Z,99.90
2019-05-18T21:08:44.175Z,99.90
2019-05-18T21:11:12.624Z,99.90
2019-05-18T21:13:41.083Z,99.90
2019-05-18T21:16:09.581Z,99.90
2019-05-18T21:18:38.036Z,99.90
2019-05-18T21:21:06.474Z,99.90
2019-05-18T21:23:34.923Z,99.90
2019-05-18T21:26:03.346Z,99.90
2019-05-18T21:28:31.793Z,99.90
2019-05-18T21:31:00.237Z,99.90
2019-05-18T21:33:28.697Z,99.90
2019-05-18T21:35:57.130Z,99.90
2019-05-18T21:38:25.587Z,99.90
2019-05-18T21:40:54.031Z,99.90
2019-05-18T21:43:22.547Z,99.90
2019-05-18T21:45:51.023Z,99.90
2019-05-18T21:48:19.520Z,99.90
2019-05-18T21:50:47.962Z,99.90
2019-05-18T21:53:16.431Z,99.90
2019-05-18T21:55:44.863Z,99.90
2019-05-18T21:58:13.315Z,99.90
2019-05-18T22:00:42.118Z,99.90
2019-05-18T22:03:10.646Z,99.90
2019-05-18T22:05:39.082Z,99.90
2019-05-18T22:08:07.529Z,99.90
2019-05-18T22:10:35.969Z,99.90
2019-05-18T22:13:04.421Z,99.90
2019-05-18T22:15:32.871Z,99.90
2019-05-18T22:18:04.020Z,99.90
2019-05-18T22:20:34.828Z,99.90
2019-05-18T22:23:03.690Z,99.90
2019-05-18T22:25:32.989Z,99.90
2019-05-18T22:28:01.562Z,99.90
2019-05-18T22:30:30.001Z,99.90
2019-05-18T22:32:58.445Z,99.90
2019-05-18T22:35:26.892Z,99.90
2019-05-18T22:37:55.385Z,99.90
2019-05-18T22:40:23.887Z,99.90
2019-05-18T22:42:52.394Z,99.90
2019-05-18T22:45:20.879Z,99.90
2019-05-18T22:47:49.381Z,99.90
2019-05-18T22:50:18.102Z,99.90
2019-05-18T22:52:46.540Z,99.90
2019-05-18T22:55:15.168Z,99.90
2019-05-18T22:57:43.621Z,99.90
2019-05-18T23:00:12.934Z,99.90
2019-05-18T23:02:41.448Z,99.90
2019-05-18T23:05:10.048Z,99.90
2019-05-18T23:07:38.481Z,99.90
2019-05-18T23:10:07.283Z,99.90
2019-05-18T23:12:35.808Z,99.90
2019-05-18T23:15:06.693Z,99.90
2019-05-18T23:17:35.154Z,99.90
2019-05-18T23:20:03.957Z,99.90
2019-05-18T23:22:32.396Z,99.90
2019-05-18T23:25:00.858Z,99.90
2019-05-18T23:27:29.302Z,99.90
2019-05-18T23:29:57.772Z,99.90
2019-05-18T23:32:26.204Z,99.90
2019-05-18T23:34:54.730Z,99.90
2019-05-18T23:37:23.198Z,99.90
2019-05-18T23:39:51.663Z,99.90
2019-05-18T23:42:20.104Z,99.90
2019-05-18T23:44:48.554Z,99.90
2019-05-18T23:47:16.996Z,99.90
2019-05-18T23:49:45.445Z,99.90
2019-05-18T23:52:13.890Z,99.90
2019-05-18T23:54:42.350Z,99.90
2019-05-18T23:57:10.796Z,99.90
2019-05-18T23:59:39.247Z,99.90
